sensor_id;sensor_type;location;lat;lon;timestamp;P1;durP1;ratioP1;P2;durP2;ratioP2
2570;SDS011;1295;51.130;6.732;2023-02-15T00:00:00;89.13;;;21.47;;
2570;SDS011;1295;51.130;6.732;2023-02-15T00:02:26;89.20;;;20.53;;
2570;SDS011;1295;51.130;6.732;2023-02-15T00:04:51;95.60;;;24.40;;
2570;SDS011;1295;51.130;6.732;2023-02-15T00:07:17;90.67;;;20.13;;
2570;SDS011;1295;51.130;6.732;2023-02-15T00:09:44;91.37;;;24.30;;
2570;SDS011;1295;51.130;6.732;2023-02-15T00:12:09;95.87;;;24.10;;
2570;SDS011;1295;51.130;6.732;2023-02-15T00:14:35;95.13;;;25.70;;
2570;SDS011;1295;51.130;6.732;2023-02-15T00:17:00;99.37;;;24.07;;
2570;SDS011;1295;51.130;6.732;2023-02-15T00:19:27;96.27;;;22.50;;
2570;SDS011;1295;51.130;6.732;2023-02-15T00:22:07;92.70;;;21.60;;
2570;SDS011;1295;51.130;6.732;2023-02-15T00:24:33;91.00;;;22.23;;
2570;SDS011;1295;51.130;6.732;2023-02-15T00:26:59;94.80;;;23.80;;
2570;SDS011;1295;51.130;6.732;2023-02-15T00:29:24;104.87;;;20.60;;
2570;SDS011;1295;51.130;6.732;2023-02-15T00:31:50;85.20;;;20.97;;
2570;SDS011;1295;51.130;6.732;2023-02-15T00:34:17;93.50;;;21.70;;
2570;SDS011;1295;51.130;6.732;2023-02-15T00:36:43;89.37;;;22.83;;
2570;SDS011;1295;51.130;6.732;2023-02-15T00:39:08;87.57;;;20.40;;
2570;SDS011;1295;51.130;6.732;2023-02-15T00:41:34;88.40;;;22.80;;
2570;SDS011;1295;51.130;6.732;2023-02-15T00:44:00;91.93;;;23.03;;
2570;SDS011;1295;51.130;6.732;2023-02-15T00:46:25;88.93;;;21.93;;
2570;SDS011;1295;51.130;6.732;2023-02-15T00:48:51;95.50;;;25.40;;
2570;SDS011;1295;51.130;6.732;2023-02-15T00:51:17;96.53;;;25.73;;
2570;SDS011;1295;51.130;6.732;2023-02-15T00:53:43;100.73;;;22.30;;
2570;SDS011;1295;51.130;6.732;2023-02-15T00:56:08;88.17;;;21.00;;
2570;SDS011;1295;51.130;6.732;2023-02-15T00:58:34;93.63;;;21.47;;
2570;SDS011;1295;51.130;6.732;2023-02-15T01:01:02;95.03;;;23.40;;
2570;SDS011;1295;51.130;6.732;2023-02-15T01:03:27;95.50;;;22.20;;
2570;SDS011;1295;51.130;6.732;2023-02-15T01:05:52;95.10;;;24.00;;
2570;SDS011;1295;51.130;6.732;2023-02-15T01:08:18;96.17;;;24.40;;
2570;SDS011;1295;51.130;6.732;2023-02-15T01:10:44;93.07;;;23.00;;
2570;SDS011;1295;51.130;6.732;2023-02-15T01:13:10;93.80;;;23.73;;
2570;SDS011;1295;51.130;6.732;2023-02-15T01:15:36;92.77;;;24.47;;
2570;SDS011;1295;51.130;6.732;2023-02-15T01:18:02;93.80;;;23.83;;
2570;SDS011;1295;51.130;6.732;2023-02-15T01:20:28;94.20;;;23.53;;
2570;SDS011;1295;51.130;6.732;2023-02-15T01:22:54;97.67;;;23.13;;
2570;SDS011;1295;51.130;6.732;2023-02-15T01:25:20;98.70;;;22.53;;
2570;SDS011;1295;51.130;6.732;2023-02-15T01:27:45;95.17;;;23.80;;
2570;SDS011;1295;51.130;6.732;2023-02-15T01:30:11;91.87;;;24.20;;
2570;SDS011;1295;51.130;6.732;2023-02-15T01:32:38;92.27;;;25.13;;
2570;SDS011;1295;51.130;6.732;2023-02-15T01:35:04;89.97;;;22.57;;
2570;SDS011;1295;51.130;6.732;2023-02-15T01:37:31;92.67;;;24.50;;
2570;SDS011;1295;51.130;6.732;2023-02-15T01:39:57;94.73;;;24.93;;
2570;SDS011;1295;51.130;6.732;2023-02-15T01:42:29;96.33;;;22.20;;
2570;SDS011;1295;51.130;6.732;2023-02-15T01:45:03;97.57;;;24.77;;
2570;SDS011;1295;51.130;6.732;2023-02-15T01:47:38;92.97;;;24.23;;
2570;SDS011;1295;51.130;6.732;2023-02-15T01:50:14;93.97;;;25.10;;
2570;SDS011;1295;51.130;6.732;2023-02-15T01:52:45;95.87;;;22.03;;
2570;SDS011;1295;51.130;6.732;2023-02-15T01:55:12;96.10;;;25.80;;
2570;SDS011;1295;51.130;6.732;2023-02-15T01:57:38;88.07;;;19.63;;
2570;SDS011;1295;51.130;6.732;2023-02-15T02:00:04;92.07;;;23.20;;
2570;SDS011;1295;51.130;6.732;2023-02-15T02:02:31;92.87;;;23.63;;
2570;SDS011;1295;51.130;6.732;2023-02-15T02:04:58;96.93;;;25.03;;
2570;SDS011;1295;51.130;6.732;2023-02-15T02:07:24;101.73;;;28.10;;
2570;SDS011;1295;51.130;6.732;2023-02-15T02:09:48;96.70;;;23.90;;
2570;SDS011;1295;51.130;6.732;2023-02-15T02:12:15;91.57;;;21.53;;
2570;SDS011;1295;51.130;6.732;2023-02-15T02:14:40;96.03;;;26.17;;
2570;SDS011;1295;51.130;6.732;2023-02-15T02:19:58;89.57;;;21.37;;
2570;SDS011;1295;51.130;6.732;2023-02-15T02:22:44;94.03;;;22.23;;
2570;SDS011;1295;51.130;6.732;2023-02-15T02:25:10;92.97;;;23.10;;
2570;SDS011;1295;51.130;6.732;2023-02-15T02:27:48;92.63;;;22.70;;
2570;SDS011;1295;51.130;6.732;2023-02-15T02:35:36;97.10;;;24.00;;
2570;SDS011;1295;51.130;6.732;2023-02-15T02:38:03;98.77;;;24.13;;
2570;SDS011;1295;51.130;6.732;2023-02-15T02:40:39;93.63;;;24.50;;
2570;SDS011;1295;51.130;6.732;2023-02-15T02:43:07;94.23;;;24.40;;
2570;SDS011;1295;51.130;6.732;2023-02-15T02:45:34;90.30;;;21.10;;
2570;SDS011;1295;51.130;6.732;2023-02-15T02:47:59;93.10;;;22.93;;
2570;SDS011;1295;51.130;6.732;2023-02-15T02:50:26;92.37;;;23.40;;
2570;SDS011;1295;51.130;6.732;2023-02-15T02:52:52;93.07;;;20.27;;
2570;SDS011;1295;51.130;6.732;2023-02-15T02:55:24;89.53;;;20.70;;
2570;SDS011;1295;51.130;6.732;2023-02-15T02:57:53;95.83;;;22.70;;
2570;SDS011;1295;51.130;6.732;2023-02-15T03:00:19;90.27;;;21.80;;
2570;SDS011;1295;51.130;6.732;2023-02-15T03:02:44;100.77;;;26.10;;
2570;SDS011;1295;51.130;6.732;2023-02-15T03:05:12;96.37;;;21.33;;
2570;SDS011;1295;51.130;6.732;2023-02-15T03:07:35;94.30;;;23.83;;
2570;SDS011;1295;51.130;6.732;2023-02-15T03:10:02;95.17;;;21.23;;
2570;SDS011;1295;51.130;6.732;2023-02-15T03:12:28;96.57;;;23.37;;
2570;SDS011;1295;51.130;6.732;2023-02-15T03:14:55;92.70;;;23.30;;
2570;SDS011;1295;51.130;6.732;2023-02-15T03:17:19;94.23;;;24.43;;
2570;SDS011;1295;51.130;6.732;2023-02-15T03:19:45;92.77;;;22.97;;
2570;SDS011;1295;51.130;6.732;2023-02-15T03:22:13;91.67;;;22.87;;
2570;SDS011;1295;51.130;6.732;2023-02-15T03:24:56;100.50;;;23.30;;
2570;SDS011;1295;51.130;6.732;2023-02-15T03:27:27;96.17;;;23.67;;
2570;SDS011;1295;51.130;6.732;2023-02-15T03:29:54;93.90;;;22.67;;
2570;SDS011;1295;51.130;6.732;2023-02-15T03:32:18;93.47;;;25.03;;
2570;SDS011;1295;51.130;6.732;2023-02-15T03:34:44;94.30;;;25.30;;
2570;SDS011;1295;51.130;6.732;2023-02-15T03:37:13;88.03;;;22.03;;
2570;SDS011;1295;51.130;6.732;2023-02-15T03:39:38;89.27;;;20.20;;
2570;SDS011;1295;51.130;6.732;2023-02-15T03:42:13;99.57;;;23.90;;
2570;SDS011;1295;51.130;6.732;2023-02-15T03:44:49;86.10;;;20.17;;
2570;SDS011;1295;51.130;6.732;2023-02-15T03:47:13;91.97;;;23.93;;
2570;SDS011;1295;51.130;6.732;2023-02-15T03:49:40;90.27;;;22.00;;
2570;SDS011;1295;51.130;6.732;2023-02-15T03:52:05;95.00;;;25.37;;
2570;SDS011;1295;51.130;6.732;2023-02-15T03:54:31;92.33;;;22.67;;
2570;SDS011;1295;51.130;6.732;2023-02-15T03:57:02;97.60;;;23.40;;
2570;SDS011;1295;51.130;6.732;2023-02-15T03:59:35;90.23;;;23.90;;
2570;SDS011;1295;51.130;6.732;2023-02-15T04:02:11;94.23;;;22.30;;
2570;SDS011;1295;51.130;6.732;2023-02-15T04:04:37;90.77;;;19.93;;
2570;SDS011;1295;51.130;6.732;2023-02-15T04:07:02;93.50;;;23.20;;
2570;SDS011;1295;51.130;6.732;2023-02-15T04:09:27;92.17;;;22.80;;
2570;SDS011;1295;51.130;6.732;2023-02-15T04:12:10;97.07;;;23.43;;
2570;SDS011;1295;51.130;6.732;2023-02-15T04:14:35;89.83;;;21.43;;
2570;SDS011;1295;51.130;6.732;2023-02-15T04:17:08;96.60;;;25.20;;
2570;SDS011;1295;51.130;6.732;2023-02-15T04:19:34;96.47;;;24.17;;
2570;SDS011;1295;51.130;6.732;2023-02-15T04:22:06;91.43;;;21.47;;
2570;SDS011;1295;51.130;6.732;2023-02-15T04:24:37;100.57;;;22.80;;
2570;SDS011;1295;51.130;6.732;2023-02-15T04:27:09;94.33;;;22.80;;
2570;SDS011;1295;51.130;6.732;2023-02-15T04:29:35;93.93;;;23.97;;
2570;SDS011;1295;51.130;6.732;2023-02-15T04:32:01;87.50;;;19.73;;
2570;SDS011;1295;51.130;6.732;2023-02-15T04:34:27;88.27;;;19.57;;
2570;SDS011;1295;51.130;6.732;2023-02-15T04:36:57;85.27;;;20.30;;
2570;SDS011;1295;51.130;6.732;2023-02-15T04:39:23;93.77;;;22.53;;
2570;SDS011;1295;51.130;6.732;2023-02-15T04:41:49;92.03;;;23.27;;
2570;SDS011;1295;51.130;6.732;2023-02-15T04:44:14;95.43;;;20.60;;
2570;SDS011;1295;51.130;6.732;2023-02-15T04:46:40;92.50;;;21.77;;
2570;SDS011;1295;51.130;6.732;2023-02-15T04:49:06;92.23;;;20.80;;
2570;SDS011;1295;51.130;6.732;2023-02-15T04:51:31;91.17;;;21.03;;
2570;SDS011;1295;51.130;6.732;2023-02-15T04:53:57;91.53;;;20.40;;
2570;SDS011;1295;51.130;6.732;2023-02-15T04:56:33;90.30;;;21.60;;
2570;SDS011;1295;51.130;6.732;2023-02-15T04:58:59;87.60;;;19.70;;
2570;SDS011;1295;51.130;6.732;2023-02-15T05:01:25;98.13;;;23.00;;
2570;SDS011;1295;51.130;6.732;2023-02-15T05:03:50;90.40;;;21.57;;
2570;SDS011;1295;51.130;6.732;2023-02-15T05:06:16;87.87;;;21.00;;
2570;SDS011;1295;51.130;6.732;2023-02-15T05:08:42;91.00;;;22.23;;
2570;SDS011;1295;51.130;6.732;2023-02-15T05:11:08;90.27;;;21.10;;
2570;SDS011;1295;51.130;6.732;2023-02-15T05:13:33;92.70;;;22.97;;
2570;SDS011;1295;51.130;6.732;2023-02-15T05:15:59;93.17;;;19.67;;
2570;SDS011;1295;51.130;6.732;2023-02-15T05:18:25;88.20;;;20.03;;
2570;SDS011;1295;51.130;6.732;2023-02-15T05:20:50;92.80;;;23.90;;
2570;SDS011;1295;51.130;6.732;2023-02-15T05:23:16;92.67;;;20.67;;
2570;SDS011;1295;51.130;6.732;2023-02-15T05:25:46;98.13;;;22.00;;
2570;SDS011;1295;51.130;6.732;2023-02-15T05:28:14;88.27;;;22.17;;
2570;SDS011;1295;51.130;6.732;2023-02-15T05:30:45;93.90;;;20.87;;
2570;SDS011;1295;51.130;6.732;2023-02-15T05:33:13;93.33;;;22.20;;
2570;SDS011;1295;51.130;6.732;2023-02-15T05:35:39;89.87;;;22.90;;
2570;SDS011;1295;51.130;6.732;2023-02-15T05:38:05;95.20;;;23.00;;
2570;SDS011;1295;51.130;6.732;2023-02-15T05:40:31;88.53;;;21.77;;
2570;SDS011;1295;51.130;6.732;2023-02-15T05:42:56;99.77;;;20.00;;
2570;SDS011;1295;51.130;6.732;2023-02-15T05:45:22;96.10;;;18.93;;
2570;SDS011;1295;51.130;6.732;2023-02-15T05:47:48;93.87;;;22.47;;
2570;SDS011;1295;51.130;6.732;2023-02-15T05:50:13;93.13;;;22.87;;
2570;SDS011;1295;51.130;6.732;2023-02-15T05:52:39;83.27;;;20.03;;
2570;SDS011;1295;51.130;6.732;2023-02-15T05:55:05;90.47;;;20.50;;
2570;SDS011;1295;51.130;6.732;2023-02-15T05:57:31;93.10;;;21.77;;
2570;SDS011;1295;51.130;6.732;2023-02-15T05:59:57;89.67;;;19.63;;
2570;SDS011;1295;51.130;6.732;2023-02-15T06:02:22;92.00;;;22.00;;
2570;SDS011;1295;51.130;6.732;2023-02-15T06:04:48;95.53;;;22.03;;
2570;SDS011;1295;51.130;6.732;2023-02-15T06:07:14;90.87;;;19.27;;
2570;SDS011;1295;51.130;6.732;2023-02-15T06:09:39;93.40;;;21.33;;
2570;SDS011;1295;51.130;6.732;2023-02-15T06:12:05;94.27;;;20.27;;
2570;SDS011;1295;51.130;6.732;2023-02-15T06:14:30;87.97;;;19.20;;
2570;SDS011;1295;51.130;6.732;2023-02-15T06:16:57;85.53;;;19.87;;
2570;SDS011;1295;51.130;6.732;2023-02-15T06:19:22;87.23;;;18.97;;
2570;SDS011;1295;51.130;6.732;2023-02-15T06:21:48;95.43;;;19.77;;
2570;SDS011;1295;51.130;6.732;2023-02-15T06:24:14;84.20;;;17.83;;
2570;SDS011;1295;51.130;6.732;2023-02-15T06:26:39;86.67;;;19.57;;
2570;SDS011;1295;51.130;6.732;2023-02-15T06:29:05;90.87;;;21.07;;
2570;SDS011;1295;51.130;6.732;2023-02-15T06:31:31;85.67;;;17.90;;
2570;SDS011;1295;51.130;6.732;2023-02-15T06:33:57;93.20;;;20.33;;
2570;SDS011;1295;51.130;6.732;2023-02-15T06:36:23;88.47;;;20.23;;
2570;SDS011;1295;51.130;6.732;2023-02-15T06:38:48;92.33;;;20.50;;
2570;SDS011;1295;51.130;6.732;2023-02-15T06:41:14;93.87;;;21.30;;
2570;SDS011;1295;51.130;6.732;2023-02-15T06:43:39;85.77;;;21.37;;
2570;SDS011;1295;51.130;6.732;2023-02-15T06:46:05;85.40;;;19.17;;
2570;SDS011;1295;51.130;6.732;2023-02-15T06:48:31;83.67;;;17.93;;
2570;SDS011;1295;51.130;6.732;2023-02-15T06:50:58;86.67;;;17.47;;
2570;SDS011;1295;51.130;6.732;2023-02-15T06:53:33;90.67;;;20.37;;
2570;SDS011;1295;51.130;6.732;2023-02-15T06:56:01;86.97;;;19.53;;
2570;SDS011;1295;51.130;6.732;2023-02-15T06:58:26;92.87;;;21.67;;
2570;SDS011;1295;51.130;6.732;2023-02-15T07:00:52;90.27;;;19.40;;
2570;SDS011;1295;51.130;6.732;2023-02-15T07:03:17;91.50;;;19.77;;
2570;SDS011;1295;51.130;6.732;2023-02-15T07:05:43;93.40;;;20.77;;
2570;SDS011;1295;51.130;6.732;2023-02-15T07:08:09;87.87;;;18.60;;
2570;SDS011;1295;51.130;6.732;2023-02-15T07:10:34;92.67;;;20.83;;
2570;SDS011;1295;51.130;6.732;2023-02-15T07:13:00;88.33;;;19.63;;
2570;SDS011;1295;51.130;6.732;2023-02-15T07:15:26;88.43;;;19.77;;
2570;SDS011;1295;51.130;6.732;2023-02-15T07:17:51;90.13;;;20.47;;
2570;SDS011;1295;51.130;6.732;2023-02-15T07:20:19;87.53;;;19.23;;
2570;SDS011;1295;51.130;6.732;2023-02-15T07:22:44;88.40;;;19.87;;
2570;SDS011;1295;51.130;6.732;2023-02-15T07:25:10;86.80;;;18.40;;
2570;SDS011;1295;51.130;6.732;2023-02-15T07:27:37;88.27;;;21.63;;
2570;SDS011;1295;51.130;6.732;2023-02-15T07:30:02;84.43;;;17.03;;
2570;SDS011;1295;51.130;6.732;2023-02-15T07:32:28;87.40;;;18.20;;
2570;SDS011;1295;51.130;6.732;2023-02-15T07:34:53;93.90;;;22.03;;
2570;SDS011;1295;51.130;6.732;2023-02-15T07:37:19;91.60;;;18.93;;
2570;SDS011;1295;51.130;6.732;2023-02-15T07:39:44;88.70;;;20.43;;
2570;SDS011;1295;51.130;6.732;2023-02-15T07:42:10;85.10;;;19.53;;
2570;SDS011;1295;51.130;6.732;2023-02-15T07:44:36;84.83;;;17.50;;
2570;SDS011;1295;51.130;6.732;2023-02-15T07:47:01;93.40;;;20.10;;
2570;SDS011;1295;51.130;6.732;2023-02-15T07:49:27;85.70;;;18.13;;
2570;SDS011;1295;51.130;6.732;2023-02-15T07:51:53;81.10;;;16.20;;
2570;SDS011;1295;51.130;6.732;2023-02-15T07:54:19;86.37;;;17.00;;
2570;SDS011;1295;51.130;6.732;2023-02-15T07:56:45;82.27;;;17.20;;
2570;SDS011;1295;51.130;6.732;2023-02-15T07:59:10;85.00;;;18.73;;
2570;SDS011;1295;51.130;6.732;2023-02-15T08:01:37;82.87;;;17.30;;
2570;SDS011;1295;51.130;6.732;2023-02-15T08:04:03;84.17;;;17.90;;
2570;SDS011;1295;51.130;6.732;2023-02-15T08:06:29;87.50;;;18.90;;
2570;SDS011;1295;51.130;6.732;2023-02-15T08:08:53;90.13;;;19.60;;
2570;SDS011;1295;51.130;6.732;2023-02-15T08:11:23;83.77;;;19.13;;
2570;SDS011;1295;51.130;6.732;2023-02-15T08:13:53;85.50;;;18.60;;
2570;SDS011;1295;51.130;6.732;2023-02-15T08:16:20;86.37;;;18.03;;
2570;SDS011;1295;51.130;6.732;2023-02-15T08:18:45;83.73;;;15.50;;
2570;SDS011;1295;51.130;6.732;2023-02-15T08:21:11;87.40;;;18.77;;
2570;SDS011;1295;51.130;6.732;2023-02-15T08:23:36;87.33;;;17.13;;
2570;SDS011;1295;51.130;6.732;2023-02-15T08:26:02;85.30;;;17.90;;
2570;SDS011;1295;51.130;6.732;2023-02-15T08:28:28;83.60;;;17.20;;
2570;SDS011;1295;51.130;6.732;2023-02-15T08:30:53;82.37;;;15.83;;
2570;SDS011;1295;51.130;6.732;2023-02-15T08:33:19;82.63;;;15.73;;
2570;SDS011;1295;51.130;6.732;2023-02-15T08:35:44;83.70;;;16.17;;
2570;SDS011;1295;51.130;6.732;2023-02-15T08:38:10;85.00;;;17.70;;
2570;SDS011;1295;51.130;6.732;2023-02-15T08:40:36;84.40;;;16.30;;
2570;SDS011;1295;51.130;6.732;2023-02-15T08:43:03;78.87;;;15.50;;
2570;SDS011;1295;51.130;6.732;2023-02-15T08:45:28;80.87;;;15.00;;
2570;SDS011;1295;51.130;6.732;2023-02-15T08:47:54;78.93;;;15.20;;
2570;SDS011;1295;51.130;6.732;2023-02-15T08:50:20;85.07;;;17.10;;
2570;SDS011;1295;51.130;6.732;2023-02-15T08:52:47;80.63;;;15.70;;
2570;SDS011;1295;51.130;6.732;2023-02-15T08:55:12;87.03;;;19.07;;
2570;SDS011;1295;51.130;6.732;2023-02-15T08:57:38;82.23;;;17.13;;
2570;SDS011;1295;51.130;6.732;2023-02-15T09:00:04;69.47;;;10.70;;
2570;SDS011;1295;51.130;6.732;2023-02-15T09:02:30;81.90;;;15.03;;
2570;SDS011;1295;51.130;6.732;2023-02-15T09:04:56;85.00;;;18.03;;
2570;SDS011;1295;51.130;6.732;2023-02-15T09:07:22;80.10;;;14.10;;
2570;SDS011;1295;51.130;6.732;2023-02-15T09:09:47;86.10;;;16.63;;
2570;SDS011;1295;51.130;6.732;2023-02-15T09:12:13;83.67;;;16.57;;
2570;SDS011;1295;51.130;6.732;2023-02-15T09:14:39;84.83;;;18.57;;
2570;SDS011;1295;51.130;6.732;2023-02-15T09:17:04;84.90;;;17.87;;
2570;SDS011;1295;51.130;6.732;2023-02-15T09:19:30;80.57;;;16.40;;
2570;SDS011;1295;51.130;6.732;2023-02-15T09:21:55;80.33;;;16.07;;
2570;SDS011;1295;51.130;6.732;2023-02-15T09:24:21;83.43;;;14.70;;
2570;SDS011;1295;51.130;6.732;2023-02-15T09:26:47;82.07;;;14.47;;
2570;SDS011;1295;51.130;6.732;2023-02-15T09:29:12;82.50;;;17.73;;
2570;SDS011;1295;51.130;6.732;2023-02-15T09:31:41;82.53;;;15.63;;
2570;SDS011;1295;51.130;6.732;2023-02-15T09:34:05;77.03;;;15.60;;
2570;SDS011;1295;51.130;6.732;2023-02-15T09:36:33;79.17;;;13.07;;
2570;SDS011;1295;51.130;6.732;2023-02-15T09:39:03;76.13;;;12.20;;
2570;SDS011;1295;51.130;6.732;2023-02-15T09:44:22;79.20;;;13.73;;
2570;SDS011;1295;51.130;6.732;2023-02-15T09:53:21;81.20;;;16.90;;
2570;SDS011;1295;51.130;6.732;2023-02-15T09:55:01;81.40;;;16.37;;
2570;SDS011;1295;51.130;6.732;2023-02-15T09:57:27;82.10;;;14.33;;
2570;SDS011;1295;51.130;6.732;2023-02-15T10:00:12;78.17;;;13.60;;
2570;SDS011;1295;51.130;6.732;2023-02-15T10:02:54;75.40;;;12.97;;
2570;SDS011;1295;51.130;6.732;2023-02-15T10:05:33;74.80;;;13.23;;
2570;SDS011;1295;51.130;6.732;2023-02-15T10:08:06;83.67;;;16.20;;
2570;SDS011;1295;51.130;6.732;2023-02-15T10:10:36;77.90;;;13.63;;
2570;SDS011;1295;51.130;6.732;2023-02-15T10:13:02;81.53;;;15.50;;
2570;SDS011;1295;51.130;6.732;2023-02-15T10:15:44;77.73;;;14.70;;
2570;SDS011;1295;51.130;6.732;2023-02-15T10:18:19;85.07;;;15.13;;
2570;SDS011;1295;51.130;6.732;2023-02-15T10:20:49;77.13;;;13.63;;
2570;SDS011;1295;51.130;6.732;2023-02-15T10:23:34;80.97;;;15.40;;
2570;SDS011;1295;51.130;6.732;2023-02-15T10:26:27;86.27;;;19.03;;
2570;SDS011;1295;51.130;6.732;2023-02-15T10:28:57;83.73;;;15.90;;
2570;SDS011;1295;51.130;6.732;2023-02-15T10:31:26;83.73;;;18.20;;
2570;SDS011;1295;51.130;6.732;2023-02-15T10:33:58;78.70;;;14.67;;
2570;SDS011;1295;51.130;6.732;2023-02-15T10:36:33;75.80;;;14.07;;
2570;SDS011;1295;51.130;6.732;2023-02-15T10:41:37;77.30;;;15.13;;
2570;SDS011;1295;51.130;6.732;2023-02-15T10:44:30;79.47;;;15.90;;
2570;SDS011;1295;51.130;6.732;2023-02-15T10:47:07;76.90;;;16.13;;
2570;SDS011;1295;51.130;6.732;2023-02-15T10:49:49;76.40;;;14.57;;
2570;SDS011;1295;51.130;6.732;2023-02-15T10:52:22;83.57;;;17.70;;
2570;SDS011;1295;51.130;6.732;2023-02-15T10:55:04;77.17;;;15.60;;
2570;SDS011;1295;51.130;6.732;2023-02-15T10:57:46;82.13;;;18.10;;
2570;SDS011;1295;51.130;6.732;2023-02-15T11:00:16;76.40;;;15.03;;
2570;SDS011;1295;51.130;6.732;2023-02-15T11:04:01;77.63;;;14.03;;
2570;SDS011;1295;51.130;6.732;2023-02-15T11:05:53;79.03;;;16.30;;
2570;SDS011;1295;51.130;6.732;2023-02-15T11:08:21;86.37;;;19.40;;
2570;SDS011;1295;51.130;6.732;2023-02-15T11:10:51;76.73;;;14.10;;
2570;SDS011;1295;51.130;6.732;2023-02-15T11:13:16;80.17;;;15.80;;
2570;SDS011;1295;51.130;6.732;2023-02-15T11:16:00;86.90;;;18.90;;
2570;SDS011;1295;51.130;6.732;2023-02-15T11:18:31;84.00;;;18.03;;
2570;SDS011;1295;51.130;6.732;2023-02-15T11:20:55;79.50;;;14.47;;
2570;SDS011;1295;51.130;6.732;2023-02-15T11:23:21;78.20;;;16.60;;
2570;SDS011;1295;51.130;6.732;2023-02-15T11:25:52;80.87;;;15.03;;
2570;SDS011;1295;51.130;6.732;2023-02-15T11:28:17;81.27;;;15.20;;
2570;SDS011;1295;51.130;6.732;2023-02-15T11:30:47;80.43;;;16.27;;
2570;SDS011;1295;51.130;6.732;2023-02-15T11:33:16;74.50;;;15.03;;
2570;SDS011;1295;51.130;6.732;2023-02-15T11:35:42;77.37;;;15.50;;
2570;SDS011;1295;51.130;6.732;2023-02-15T11:38:11;77.17;;;16.13;;
2570;SDS011;1295;51.130;6.732;2023-02-15T11:40:41;76.97;;;14.10;;
2570;SDS011;1295;51.130;6.732;2023-02-15T11:43:03;81.63;;;16.43;;
2570;SDS011;1295;51.130;6.732;2023-02-15T11:45:28;80.27;;;14.87;;
2570;SDS011;1295;51.130;6.732;2023-02-15T11:47:55;74.17;;;12.50;;
2570;SDS011;1295;51.130;6.732;2023-02-15T11:50:22;74.37;;;13.93;;
2570;SDS011;1295;51.130;6.732;2023-02-15T11:52:50;76.47;;;13.77;;
2570;SDS011;1295;51.130;6.732;2023-02-15T11:55:18;78.43;;;18.23;;
2570;SDS011;1295;51.130;6.732;2023-02-15T11:57:42;83.23;;;15.20;;
2570;SDS011;1295;51.130;6.732;2023-02-15T12:00:13;90.67;;;18.40;;
2570;SDS011;1295;51.130;6.732;2023-02-15T12:02:45;80.13;;;15.00;;
2570;SDS011;1295;51.130;6.732;2023-02-15T12:05:11;76.90;;;14.93;;
2570;SDS011;1295;51.130;6.732;2023-02-15T12:07:37;76.20;;;15.73;;
2570;SDS011;1295;51.130;6.732;2023-02-15T12:10:03;76.90;;;16.83;;
2570;SDS011;1295;51.130;6.732;2023-02-15T12:12:29;79.50;;;14.37;;
2570;SDS011;1295;51.130;6.732;2023-02-15T12:14:55;78.10;;;16.37;;
2570;SDS011;1295;51.130;6.732;2023-02-15T12:17:21;73.67;;;13.03;;
2570;SDS011;1295;51.130;6.732;2023-02-15T12:19:46;77.37;;;14.90;;
2570;SDS011;1295;51.130;6.732;2023-02-15T12:22:19;77.50;;;14.40;;
2570;SDS011;1295;51.130;6.732;2023-02-15T12:24:44;83.20;;;19.40;;
2570;SDS011;1295;51.130;6.732;2023-02-15T12:27:15;80.70;;;18.70;;
2570;SDS011;1295;51.130;6.732;2023-02-15T12:29:42;82.60;;;17.03;;
2570;SDS011;1295;51.130;6.732;2023-02-15T12:32:09;78.90;;;15.33;;
2570;SDS011;1295;51.130;6.732;2023-02-15T12:34:35;83.40;;;16.70;;
2570;SDS011;1295;51.130;6.732;2023-02-15T12:37:00;83.00;;;17.37;;
2570;SDS011;1295;51.130;6.732;2023-02-15T12:39:27;79.80;;;14.00;;
2570;SDS011;1295;51.130;6.732;2023-02-15T12:42:02;81.60;;;16.67;;
2570;SDS011;1295;51.130;6.732;2023-02-15T12:44:31;87.10;;;18.50;;
2570;SDS011;1295;51.130;6.732;2023-02-15T12:46:57;76.80;;;15.33;;
2570;SDS011;1295;51.130;6.732;2023-02-15T12:49:22;81.40;;;16.83;;
2570;SDS011;1295;51.130;6.732;2023-02-15T12:51:50;74.20;;;15.43;;
2570;SDS011;1295;51.130;6.732;2023-02-15T12:59:46;80.97;;;16.80;;
2570;SDS011;1295;51.130;6.732;2023-02-15T13:02:03;84.47;;;15.73;;
2570;SDS011;1295;51.130;6.732;2023-02-15T13:07:21;82.62;;;18.00;;
2570;SDS011;1295;51.130;6.732;2023-02-15T13:09:47;73.77;;;15.37;;
2570;SDS011;1295;51.130;6.732;2023-02-15T13:12:18;79.77;;;17.07;;
2570;SDS011;1295;51.130;6.732;2023-02-15T13:14:46;80.17;;;14.80;;
2570;SDS011;1295;51.130;6.732;2023-02-15T13:17:11;77.77;;;16.07;;
2570;SDS011;1295;51.130;6.732;2023-02-15T13:19:44;80.50;;;15.27;;
2570;SDS011;1295;51.130;6.732;2023-02-15T13:22:11;78.83;;;14.43;;
2570;SDS011;1295;51.130;6.732;2023-02-15T13:24:36;80.87;;;15.87;;
2570;SDS011;1295;51.130;6.732;2023-02-15T13:27:01;78.37;;;15.73;;
2570;SDS011;1295;51.130;6.732;2023-02-15T13:29:28;80.93;;;15.63;;
2570;SDS011;1295;51.130;6.732;2023-02-15T13:31:53;84.40;;;18.10;;
2570;SDS011;1295;51.130;6.732;2023-02-15T13:34:22;76.20;;;14.90;;
2570;SDS011;1295;51.130;6.732;2023-02-15T13:37:08;79.20;;;14.63;;
2570;SDS011;1295;51.130;6.732;2023-02-15T13:44:51;75.63;;;15.20;;
2570;SDS011;1295;51.130;6.732;2023-02-15T13:47:27;74.83;;;12.37;;
2570;SDS011;1295;51.130;6.732;2023-02-15T13:53:12;85.87;;;17.37;;
2570;SDS011;1295;51.130;6.732;2023-02-15T13:55:50;77.13;;;14.47;;
2570;SDS011;1295;51.130;6.732;2023-02-15T13:58:21;74.17;;;14.83;;
2570;SDS011;1295;51.130;6.732;2023-02-15T14:03:32;77.40;;;15.27;;
2570;SDS011;1295;51.130;6.732;2023-02-15T14:06:28;73.57;;;12.90;;
2570;SDS011;1295;51.130;6.732;2023-02-15T14:08:57;76.07;;;13.57;;
2570;SDS011;1295;51.130;6.732;2023-02-15T14:11:42;72.97;;;13.73;;
2570;SDS011;1295;51.130;6.732;2023-02-15T14:14:27;81.10;;;18.00;;
2570;SDS011;1295;51.130;6.732;2023-02-15T14:19:33;76.77;;;14.30;;
2570;SDS011;1295;51.130;6.732;2023-02-15T14:22:10;86.73;;;17.07;;
2570;SDS011;1295;51.130;6.732;2023-02-15T14:24:55;86.70;;;17.27;;
2570;SDS011;1295;51.130;6.732;2023-02-15T14:27:54;71.03;;;11.40;;
2570;SDS011;1295;51.130;6.732;2023-02-15T14:30:21;74.93;;;14.37;;
2570;SDS011;1295;51.130;6.732;2023-02-15T14:32:47;73.40;;;14.63;;
2570;SDS011;1295;51.130;6.732;2023-02-15T14:35:13;71.50;;;12.53;;
2570;SDS011;1295;51.130;6.732;2023-02-15T14:40:17;87.73;;;21.17;;
2570;SDS011;1295;51.130;6.732;2023-02-15T14:43:01;88.70;;;20.20;;
2570;SDS011;1295;51.130;6.732;2023-02-15T14:45:35;80.63;;;21.60;;
2570;SDS011;1295;51.130;6.732;2023-02-15T14:48:04;90.07;;;22.60;;
2570;SDS011;1295;51.130;6.732;2023-02-15T14:50:38;85.43;;;23.30;;
2570;SDS011;1295;51.130;6.732;2023-02-15T14:55:40;111.30;;;23.10;;
2570;SDS011;1295;51.130;6.732;2023-02-15T14:58:10;84.53;;;18.10;;
2570;SDS011;1295;51.130;6.732;2023-02-15T15:00:36;77.60;;;16.13;;
2570;SDS011;1295;51.130;6.732;2023-02-15T15:02:59;91.70;;;21.10;;
2570;SDS011;1295;51.130;6.732;2023-02-15T15:05:32;78.03;;;20.10;;
2570;SDS011;1295;51.130;6.732;2023-02-15T15:07:54;81.30;;;19.57;;
2570;SDS011;1295;51.130;6.732;2023-02-15T15:10:35;83.60;;;22.67;;
2570;SDS011;1295;51.130;6.732;2023-02-15T15:13:00;89.73;;;23.97;;
2570;SDS011;1295;51.130;6.732;2023-02-15T15:15:38;78.13;;;16.13;;
2570;SDS011;1295;51.130;6.732;2023-02-15T15:18:09;83.30;;;20.63;;
2570;SDS011;1295;51.130;6.732;2023-02-15T15:20:40;81.00;;;21.70;;
2570;SDS011;1295;51.130;6.732;2023-02-15T15:25:56;80.43;;;20.53;;
2570;SDS011;1295;51.130;6.732;2023-02-15T15:31:06;84.03;;;25.60;;
2570;SDS011;1295;51.130;6.732;2023-02-15T15:33:38;80.33;;;17.90;;
2570;SDS011;1295;51.130;6.732;2023-02-15T15:36:12;82.57;;;23.10;;
2570;SDS011;1295;51.130;6.732;2023-02-15T15:38:58;88.50;;;24.00;;
2570;SDS011;1295;51.130;6.732;2023-02-15T15:41:39;82.17;;;20.03;;
2570;SDS011;1295;51.130;6.732;2023-02-15T15:44:11;77.70;;;18.13;;
2570;SDS011;1295;51.130;6.732;2023-02-15T15:46:50;84.67;;;19.70;;